Time;durP1;ratioP1;P1;durP2;ratioP2;P2;SDS_P1;SDS_P2;PMS_P1;PMS_P2;Temp;Humidity;BMP_temperature;BMP_pressure;BME280_temperature;BME280_humidity;BME280_pressure;Samples;Min_cycle;Max_cycle;Signal;HPM_P1;HPM_P2
2022/03/24 00:02:22;;;;;;;128.48;57.53;;;;;;;;;;5072609;28;20035;-67
2022/03/24 00:04:49;;;;;;;122.78;58.95;;;;;;;;;;5054630;28;20089;-66
2022/03/24 00:07:15;;;;;;;134.85;59.25;;;;;;;;;;5072635;28;20032;-65
2022/03/24 00:09:41;;;;;;;113.75;54.97;;;;;;;;;;5072616;28;20154;-66
2022/03/24 00:12:08;;;;;;;122.85;57.45;;;;;;;;;;5072560;28;20017;-66
2022/03/24 00:14:34;;;;;;;131.90;61.10;;;;;;;;;;5072637;28;20465;-66
2022/03/24 00:17:00;;;;;;;122.60;56.67;;;;;;;;;;5054634;28;20115;-67
2022/03/24 00:19:27;;;;;;;129.38;58.45;;;;;;;;;;5072544;28;20490;-66
2022/03/24 00:21:53;;;;;;;114.45;56.92;;;;;;;;;;5072503;28;20350;-65
2022/03/24 00:27:05;;;;;;;119.15;58.25;;;;;;;;;;5076002;28;20055;-65
2022/03/24 00:29:31;;;;;;;114.88;54.40;;;;;;;;;;5076442;28;20074;-65
2022/03/24 00:31:57;;;;;;;119.15;56.20;;;;;;;;;;5075825;28;20020;-66
2022/03/24 00:34:23;;;;;;;117.30;57.22;;;;;;;;;;5076358;28;20025;-65
2022/03/24 00:36:50;;;;;;;121.70;56.97;;;;;;;;;;5076002;28;20048;-64
2022/03/24 00:39:16;;;;;;;128.27;57.92;;;;;;;;;;5075924;28;20453;-65
2022/03/24 00:41:43;;;;;;;112.72;55.55;;;;;;;;;;5058008;28;20024;-65
2022/03/24 00:44:10;;;;;;;120.20;55.58;;;;;;;;;;5075523;28;20132;-64
2022/03/24 00:46:36;;;;;;;99.95;50.47;;;;;;;;;;5057837;28;20103;-65
2022/03/24 00:49:02;;;;;;;118.28;54.67;;;;;;;;;;5057842;28;20039;-65
2022/03/24 00:51:29;;;;;;;116.07;54.30;;;;;;;;;;5075737;28;20473;-65
2022/03/24 00:53:55;;;;;;;111.28;58.17;;;;;;;;;;5057696;28;20028;-65
2022/03/24 00:56:23;;;;;;;124.05;58.03;;;;;;;;;;5075697;28;20024;-65
2022/03/24 00:58:50;;;;;;;122.88;57.58;;;;;;;;;;5075641;28;20024;-65
2022/03/24 01:01:16;;;;;;;114.32;56.40;;;;;;;;;;5057534;28;20031;-65
2022/03/24 01:03:43;;;;;;;118.25;54.47;;;;;;;;;;5075502;28;20508;-65
2022/03/24 01:06:10;;;;;;;112.93;52.65;;;;;;;;;;5075486;28;20032;-65
2022/03/24 01:08:36;;;;;;;105.60;53.17;;;;;;;;;;5075433;28;20025;-64
2022/03/24 01:11:05;;;;;;;127.32;56.97;;;;;;;;;;5075400;28;20024;-65
2022/03/24 01:13:34;;;;;;;124.55;54.75;;;;;;;;;;5075331;28;20095;-65
2022/03/24 01:16:00;;;;;;;107.32;50.92;;;;;;;;;;5057353;28;20471;-65
2022/03/24 01:18:27;;;;;;;106.53;52.05;;;;;;;;;;5075275;28;20104;-66
2022/03/24 01:20:53;;;;;;;104.38;50.75;;;;;;;;;;5075228;28;20052;-66
2022/03/24 01:23:23;;;;;;;95.32;47.60;;;;;;;;;;5075123;28;20029;-67
2022/03/24 01:25:50;;;;;;;107.25;47.90;;;;;;;;;;5075115;28;20123;-67
2022/03/24 01:28:16;;;;;;;94.43;47.88;;;;;;;;;;5075096;28;20035;-66
2022/03/24 01:30:42;;;;;;;96.88;45.60;;;;;;;;;;5075013;28;20028;-66
2022/03/24 01:33:08;;;;;;;94.53;48.20;;;;;;;;;;5074917;28;20064;-67
2022/03/24 01:35:35;;;;;;;91.03;45.47;;;;;;;;;;5056824;28;20031;-66
2022/03/24 01:38:01;;;;;;;100.50;47.97;;;;;;;;;;5056881;28;20103;-65
2022/03/24 01:40:27;;;;;;;89.88;46.75;;;;;;;;;;5074850;28;20029;-66
2022/03/24 01:42:55;;;;;;;98.30;47.05;;;;;;;;;;5056542;28;20025;-66
2022/03/24 01:45:21;;;;;;;102.97;49.83;;;;;;;;;;5074715;28;20021;-66
2022/03/24 01:47:47;;;;;;;87.32;45.75;;;;;;;;;;5056740;28;20029;-66
2022/03/24 01:50:13;;;;;;;95.32;47.33;;;;;;;;;;5056665;28;20487;-66
2022/03/24 01:52:40;;;;;;;89.78;44.17;;;;;;;;;;5074588;28;20111;-66
2022/03/24 01:55:07;;;;;;;81.43;42.45;;;;;;;;;;5074608;28;20032;-65
2022/03/24 01:57:33;;;;;;;86.93;43.03;;;;;;;;;;5056476;28;20070;-65
2022/03/24 02:00:00;;;;;;;89.97;44.17;;;;;;;;;;5056506;28;20038;-64
2022/03/24 02:02:27;;;;;;;89.18;44.40;;;;;;;;;;5056446;28;20377;-64
2022/03/24 02:04:53;;;;;;;100.82;47.30;;;;;;;;;;5056378;28;20032;-65
2022/03/24 02:07:20;;;;;;;93.55;44.45;;;;;;;;;;5074291;28;20044;-65
2022/03/24 02:09:46;;;;;;;89.53;45.55;;;;;;;;;;5074290;28;20119;-65
2022/03/24 02:12:16;;;;;;;89.40;43.83;;;;;;;;;;5074189;28;20031;-67
2022/03/24 02:14:42;;;;;;;94.88;47.30;;;;;;;;;;5074119;28;20342;-65
2022/03/24 02:17:09;;;;;;;88.50;46.20;;;;;;;;;;5074042;28;20027;-66
2022/03/24 02:19:36;;;;;;;93.97;46.33;;;;;;;;;;5074047;28;20036;-65
2022/03/24 02:22:13;;;;;;;98.35;46.13;;;;;;;;;;5074039;28;20025;-65
2022/03/24 02:24:39;;;;;;;114.80;50.42;;;;;;;;;;5073894;28;20031;-66
2022/03/24 02:27:05;;;;;;;117.75;52.42;;;;;;;;;;5073923;28;20538;-66
2022/03/24 02:29:31;;;;;;;125.32;57.58;;;;;;;;;;5055940;28;20028;-67
2022/03/24 02:31:58;;;;;;;111.43;53.83;;;;;;;;;;5055862;28;20028;-66
2022/03/24 02:34:37;;;;;;;113.85;52.28;;;;;;;;;;5073790;28;20107;-66
2022/03/24 02:37:13;;;;;;;116.13;54.83;;;;;;;;;;5055926;28;20024;-66
2022/03/24 02:39:44;;;;;;;116.05;56.63;;;;;;;;;;5073745;28;20487;-68
2022/03/24 02:42:14;;;;;;;119.40;54.90;;;;;;;;;;5055682;28;20086;-66
2022/03/24 02:44:45;;;;;;;135.75;58.42;;;;;;;;;;5073068;28;20063;-67
2022/03/24 02:47:11;;;;;;;125.05;59.15;;;;;;;;;;5073053;28;20457;-66
2022/03/24 02:49:38;;;;;;;117.68;55.30;;;;;;;;;;5055518;28;20428;-67
2022/03/24 02:52:05;;;;;;;120.78;56.33;;;;;;;;;;5073748;28;20350;-67
2022/03/24 02:54:32;;;;;;;130.43;57.25;;;;;;;;;;5073389;28;20107;-68
2022/03/24 02:56:58;;;;;;;118.65;55.65;;;;;;;;;;5055443;28;20077;-67
2022/03/24 02:59:25;;;;;;;122.13;58.92;;;;;;;;;;5073592;28;20024;-67
2022/03/24 03:02:01;;;;;;;126.75;57.10;;;;;;;;;;5055337;28;20031;-67
2022/03/24 03:04:28;;;;;;;116.70;56.08;;;;;;;;;;5073400;28;20086;-67
2022/03/24 03:06:58;;;;;;;123.15;55.00;;;;;;;;;;5055365;28;20111;-68
2022/03/24 03:09:25;;;;;;;116.25;53.15;;;;;;;;;;5055232;28;20074;-67
2022/03/24 03:11:52;;;;;;;108.43;51.45;;;;;;;;;;5072895;28;20111;-67
2022/03/24 03:14:21;;;;;;;127.57;54.88;;;;;;;;;;5054837;28;20111;-67
2022/03/24 03:16:47;;;;;;;103.85;52.67;;;;;;;;;;5073218;28;20037;-67
2022/03/24 03:19:15;;;;;;;112.43;54.30;;;;;;;;;;5073116;28;20028;-66
2022/03/24 03:21:42;;;;;;;108.80;52.42;;;;;;;;;;5055102;28;20024;-67
2022/03/24 03:24:10;;;;;;;108.22;52.70;;;;;;;;;;5073027;28;20028;-67
2022/03/24 03:26:37;;;;;;;98.38;48.25;;;;;;;;;;5055039;28;20039;-66
2022/03/24 03:29:06;;;;;;;92.45;44.75;;;;;;;;;;5072975;28;20116;-66
2022/03/24 03:31:32;;;;;;;104.00;47.22;;;;;;;;;;5054939;28;20025;-65
2022/03/24 03:33:58;;;;;;;95.47;43.63;;;;;;;;;;5072939;28;20081;-67
2022/03/24 03:36:25;;;;;;;98.82;45.33;;;;;;;;;;5072984;28;20035;-66
2022/03/24 03:38:51;;;;;;;96.32;46.53;;;;;;;;;;5073208;28;20111;-66
2022/03/24 03:41:22;;;;;;;95.40;45.70;;;;;;;;;;5072927;28;20029;-65
2022/03/24 03:43:48;;;;;;;94.28;44.70;;;;;;;;;;5072669;28;20079;-65
2022/03/24 03:46:15;;;;;;;93.72;45.15;;;;;;;;;;5072774;28;20056;-66
2022/03/24 03:48:41;;;;;;;98.20;44.72;;;;;;;;;;5054791;28;20109;-67
2022/03/24 03:51:08;;;;;;;93.22;41.80;;;;;;;;;;5073093;28;20028;-67
2022/03/24 03:53:37;;;;;;;93.28;41.35;;;;;;;;;;5054473;28;20059;-68
2022/03/24 03:56:04;;;;;;;102.28;43.17;;;;;;;;;;5054831;28;20469;-68
2022/03/24 03:58:30;;;;;;;90.10;43.55;;;;;;;;;;5074766;28;20033;-68
2022/03/24 04:00:59;;;;;;;99.00;42.22;;;;;;;;;;5076730;28;20021;-69
2022/03/24 04:03:27;;;;;;;100.32;44.20;;;;;;;;;;5058664;28;20028;-68
2022/03/24 04:05:57;;;;;;;86.80;42.00;;;;;;;;;;5076605;28;20116;-68
2022/03/24 04:08:28;;;;;;;85.35;40.33;;;;;;;;;;5076901;28;20170;-70
2022/03/24 04:10:55;;;;;;;94.88;40.72;;;;;;;;;;5058589;28;20470;-68
2022/03/24 04:13:22;;;;;;;87.00;41.63;;;;;;;;;;5076465;28;20031;-68
2022/03/24 04:15:48;;;;;;;81.75;40.20;;;;;;;;;;5058495;28;20527;-68
2022/03/24 04:18:16;;;;;;;95.00;38.53;;;;;;;;;;5076398;28;20024;-71
2022/03/24 04:20:42;;;;;;;77.72;37.95;;;;;;;;;;5076326;28;20476;-69
2022/03/24 04:23:09;;;;;;;82.22;38.97;;;;;;;;;;5058329;28;20751;-65
2022/03/24 04:25:36;;;;;;;80.00;38.60;;;;;;;;;;5076173;28;20028;-66
2022/03/24 04:28:03;;;;;;;96.55;40.42;;;;;;;;;;5076205;28;20021;-66
2022/03/24 04:30:29;;;;;;;84.38;38.97;;;;;;;;;;5076182;28;20029;-67
2022/03/24 04:32:56;;;;;;;85.55;40.47;;;;;;;;;;5076097;28;20457;-67
2022/03/24 04:35:22;;;;;;;89.95;39.95;;;;;;;;;;5058097;28;20036;-65
2022/03/24 04:37:49;;;;;;;89.82;42.13;;;;;;;;;;5057804;28;20025;-65
2022/03/24 04:40:16;;;;;;;84.78;41.83;;;;;;;;;;5058029;28;20531;-66
2022/03/24 04:42:43;;;;;;;88.75;41.22;;;;;;;;;;5075984;28;20074;-65
2022/03/24 04:45:10;;;;;;;88.25;42.95;;;;;;;;;;5057644;28;20059;-65
2022/03/24 04:47:37;;;;;;;91.38;42.13;;;;;;;;;;5075897;28;20137;-65
2022/03/24 04:50:04;;;;;;;94.40;43.78;;;;;;;;;;5075785;28;20347;-65
2022/03/24 04:52:31;;;;;;;105.93;42.00;;;;;;;;;;5057794;28;20548;-65
2022/03/24 04:54:59;;;;;;;105.65;42.67;;;;;;;;;;5076078;28;20032;-65
2022/03/24 04:57:25;;;;;;;107.85;42.33;;;;;;;;;;5057760;28;20029;-66
2022/03/24 04:59:51;;;;;;;97.10;42.00;;;;;;;;;;5075660;28;20131;-66
2022/03/24 05:02:18;;;;;;;94.10;40.53;;;;;;;;;;5075598;28;20111;-67
2022/03/24 05:04:45;;;;;;;96.53;40.85;;;;;;;;;;5075459;28;20024;-66
2022/03/24 05:07:11;;;;;;;109.75;41.28;;;;;;;;;;5075511;28;20032;-68
2022/03/24 05:09:38;;;;;;;90.75;39.00;;;;;;;;;;5074962;28;20504;-67
2022/03/24 05:12:04;;;;;;;95.85;43.60;;;;;;;;;;5075402;28;20051;-67
2022/03/24 05:14:31;;;;;;;89.97;45.35;;;;;;;;;;5075381;28;20078;-67
2022/03/24 05:16:57;;;;;;;107.20;43.38;;;;;;;;;;5075327;28;20115;-67
2022/03/24 05:19:24;;;;;;;108.82;42.25;;;;;;;;;;5075275;28;20020;-67
2022/03/24 05:21:50;;;;;;;96.05;43.35;;;;;;;;;;5075146;28;20024;-66
2022/03/24 05:24:17;;;;;;;87.82;40.40;;;;;;;;;;5075180;28;20535;-66
2022/03/24 05:26:43;;;;;;;97.80;42.33;;;;;;;;;;5075108;28;20078;-66
2022/03/24 05:29:10;;;;;;;94.13;42.40;;;;;;;;;;5057116;28;20036;-65
2022/03/24 05:31:37;;;;;;;105.82;43.78;;;;;;;;;;5074944;28;20052;-67
2022/03/24 05:34:04;;;;;;;104.47;46.20;;;;;;;;;;5074987;28;20025;-67
2022/03/24 05:36:30;;;;;;;102.25;45.60;;;;;;;;;;5074994;28;20040;-65
2022/03/24 05:38:56;;;;;;;107.93;44.50;;;;;;;;;;5074875;28;20366;-66
2022/03/24 05:41:23;;;;;;;114.07;46.30;;;;;;;;;;5074647;28;20021;-66
2022/03/24 05:44:04;;;;;;;94.78;42.67;;;;;;;;;;5085040;28;20044;-66
2022/03/24 05:46:31;;;;;;;110.45;43.03;;;;;;;;;;5095029;28;20028;-67
2022/03/24 05:48:58;;;;;;;116.15;45.85;;;;;;;;;;5094957;28;20019;-66
2022/03/24 05:51:24;;;;;;;97.43;43.28;;;;;;;;;;5094830;28;20056;-66
2022/03/24 05:53:51;;;;;;;91.97;41.22;;;;;;;;;;5094812;28;20526;-68
2022/03/24 05:56:18;;;;;;;117.95;40.88;;;;;;;;;;5094709;28;20055;-68
2022/03/24 05:58:44;;;;;;;100.65;41.75;;;;;;;;;;5076399;28;20357;-68
2022/03/24 06:01:11;;;;;;;100.30;43.50;;;;;;;;;;5094825;28;20115;-68
2022/03/24 06:03:37;;;;;;;92.47;42.45;;;;;;;;;;5076682;28;20376;-67
2022/03/24 06:06:08;;;;;;;92.13;42.97;;;;;;;;;;5094377;28;20036;-67
2022/03/24 06:08:35;;;;;;;96.25;41.22;;;;;;;;;;5094540;28;20021;-68
2022/03/24 06:11:01;;;;;;;83.15;39.75;;;;;;;;;;5094499;28;20171;-68
2022/03/24 06:13:27;;;;;;;82.40;37.88;;;;;;;;;;5094436;28;20032;-67
2022/03/24 06:15:55;;;;;;;77.88;38.33;;;;;;;;;;5076021;28;20039;-67
2022/03/24 06:18:21;;;;;;;89.60;37.97;;;;;;;;;;5094405;28;20066;-67
2022/03/24 06:20:47;;;;;;;81.28;38.53;;;;;;;;;;5093437;28;20032;-68
2022/03/24 06:23:14;;;;;;;75.05;37.20;;;;;;;;;;5093414;28;20035;-67
2022/03/24 06:25:42;;;;;;;76.38;36.67;;;;;;;;;;5093714;28;20484;-68
2022/03/24 06:28:08;;;;;;;75.05;35.47;;;;;;;;;;5094177;28;20114;-67
2022/03/24 06:30:35;;;;;;;64.25;32.22;;;;;;;;;;5094023;28;20059;-67
2022/03/24 06:33:01;;;;;;;55.65;27.05;;;;;;;;;;5094276;28;20371;-67
2022/03/24 06:35:28;;;;;;;54.70;26.58;;;;;;;;;;5093579;28;20024;-67
2022/03/24 06:37:54;;;;;;;51.40;26.23;;;;;;;;;;5093943;28;20027;-66
2022/03/24 06:40:20;;;;;;;55.67;25.75;;;;;;;;;;5093748;28;20032;-65
2022/03/24 06:42:47;;;;;;;48.13;23.98;;;;;;;;;;5093460;28;20048;-65
2022/03/24 06:45:15;;;;;;;52.58;26.52;;;;;;;;;;5093736;28;20036;-65
2022/03/24 06:47:42;;;;;;;60.00;29.10;;;;;;;;;;5075568;28;20023;-65
2022/03/24 06:50:12;;;;;;;67.60;31.60;;;;;;;;;;5075499;28;20110;-64
2022/03/24 06:52:39;;;;;;;82.03;38.00;;;;;;;;;;5093658;28;20029;-65
2022/03/24 06:55:06;;;;;;;62.13;30.35;;;;;;;;;;5093867;28;20104;-65
2022/03/24 06:57:32;;;;;;;60.95;26.00;;;;;;;;;;5093560;28;20473;-65
2022/03/24 06:59:58;;;;;;;61.80;27.23;;;;;;;;;;5093499;28;20024;-66
2022/03/24 07:02:24;;;;;;;60.83;25.90;;;;;;;;;;5075353;28;20380;-64
2022/03/24 07:04:50;;;;;;;66.72;25.80;;;;;;;;;;5075333;28;20020;-64
2022/03/24 07:07:17;;;;;;;54.80;23.10;;;;;;;;;;5093468;28;20024;-66
2022/03/24 07:09:44;;;;;;;52.38;22.63;;;;;;;;;;5075110;28;20050;-65
2022/03/24 07:12:11;;;;;;;51.38;18.65;;;;;;;;;;5093591;28;20020;-65
2022/03/24 07:14:37;;;;;;;31.20;15.40;;;;;;;;;;5088845;28;20028;-65
2022/03/24 07:17:04;;;;;;;40.03;14.20;;;;;;;;;;5074613;28;20101;-65
2022/03/24 07:19:30;;;;;;;43.33;14.95;;;;;;;;;;5075143;28;20459;-65
2022/03/24 07:21:56;;;;;;;36.35;14.80;;;;;;;;;;5075028;28;20032;-65
2022/03/24 07:24:22;;;;;;;40.92;14.68;;;;;;;;;;5093242;28;20073;-65
2022/03/24 07:26:49;;;;;;;48.85;14.35;;;;;;;;;;5075053;28;20127;-65
2022/03/24 07:29:15;;;;;;;34.63;14.45;;;;;;;;;;5075079;28;20047;-65
2022/03/24 07:31:41;;;;;;;34.05;14.73;;;;;;;;;;5092932;28;20024;-66
2022/03/24 07:34:07;;;;;;;34.25;15.27;;;;;;;;;;5093079;28;20089;-67
2022/03/24 07:36:33;;;;;;;36.75;15.73;;;;;;;;;;5093069;28;20488;-66
2022/03/24 07:39:00;;;;;;;54.55;23.88;;;;;;;;;;5093206;28;20052;-65
2022/03/24 07:41:27;;;;;;;52.63;21.88;;;;;;;;;;5074974;28;20024;-67
2022/03/24 07:43:53;;;;;;;39.03;15.40;;;;;;;;;;5092325;28;20047;-65
2022/03/24 07:46:19;;;;;;;29.75;13.80;;;;;;;;;;5092978;28;20067;-65
2022/03/24 07:48:47;;;;;;;43.55;15.63;;;;;;;;;;5074973;28;20024;-65
2022/03/24 07:51:13;;;;;;;40.80;14.18;;;;;;;;;;5093042;28;20024;-65
2022/03/24 07:53:40;;;;;;;39.40;14.05;;;;;;;;;;5074861;28;20032;-65
2022/03/24 07:56:08;;;;;;;42.78;14.23;;;;;;;;;;5074800;28;20536;-64
2022/03/24 07:58:36;;;;;;;39.00;15.38;;;;;;;;;;5074636;28;20028;-63
2022/03/24 08:01:03;;;;;;;41.55;13.95;;;;;;;;;;5091410;28;20028;-66
2022/03/24 08:03:29;;;;;;;40.08;13.75;;;;;;;;;;5073109;28;20130;-66
2022/03/24 08:05:56;;;;;;;41.67;13.88;;;13.80;63.00;;;;;;5074691;28;20039;-66
2022/03/24 08:08:22;;;;;;;84.70;16.65;;;13.90;66.00;;;;;;5092870;28;20070;-69
2022/03/24 08:10:50;;;;;;;49.40;14.10;;;14.20;70.80;;;;;;5092667;28;20029;-68
2022/03/24 08:13:17;;;;;;;34.38;12.95;;;;;;;;;;5074466;28;20507;-65
2022/03/24 08:15:44;;;;;;;36.42;13.50;;;;;;;;;;5074507;28;20035;-68
2022/03/24 08:18:11;;;;;;;32.42;12.77;;;;;;;;;;5074576;28;20024;-68
2022/03/24 08:20:38;;;;;;;34.97;14.68;;;14.70;98.00;;;;;;5092700;28;20107;-68
2022/03/24 08:23:05;;;;;;;26.35;13.90;;;15.00;90.50;;;;;;5092614;28;20028;-68
2022/03/24 08:25:32;;;;;;;33.45;14.02;;;15.10;89.50;;;;;;5092530;28;20039;-67
2022/03/24 08:27:58;;;;;;;32.00;15.38;;;15.30;82.60;;;;;;5092645;28;20376;-67
2022/03/24 08:30:25;;;;;;;31.10;15.75;;;15.50;81.40;;;;;;5092639;28;20027;-67
2022/03/24 08:32:51;;;;;;;35.50;14.40;;;15.60;72.20;;;;;;5092696;28;20028;-68
2022/03/24 08:35:17;;;;;;;32.08;14.68;;;15.70;71.20;;;;;;5090332;28;20040;-67
2022/03/24 08:37:43;;;;;;;29.25;14.90;;;15.90;70.00;;;;;;5092272;28;20036;-67
2022/03/24 08:40:10;;;;;;;39.25;16.80;;;16.00;73.60;;;;;;5092485;28;20105;-65
2022/03/24 08:42:38;;;;;;;32.15;15.25;;;16.20;91.90;;;;;;5092303;28;20115;-71
2022/03/24 08:45:07;;;;;;;31.42;15.52;;;16.30;82.10;;;;;;5094571;28;20126;-69
2022/03/24 08:47:33;;;;;;;25.55;15.70;;;16.40;60.30;;;;;;5096018;28;20032;-65
2022/03/24 08:49:59;;;;;;;29.40;15.45;;;16.50;58.90;;;;;;5096186;28;20032;-66
2022/03/24 08:52:27;;;;;;;26.63;14.73;;;16.70;59.10;;;;;;5077482;28;20046;-67
2022/03/24 08:54:54;;;;;;;31.63;15.02;;;16.80;57.20;;;;;;5075396;28;20020;-69
2022/03/24 08:57:26;;;;;;;34.10;16.85;;;16.90;57.50;;;;;;5075552;28;20457;-69
2022/03/24 08:59:55;;;;;;;40.92;15.80;;;17.10;58.00;;;;;;5075582;28;20059;-68
2022/03/24 09:02:22;;;;;;;38.17;17.88;;;17.20;57.70;;;;;;5073953;28;20369;-66
2022/03/24 09:04:48;;;;;;;34.70;16.33;;;17.40;57.60;;;;;;5075217;28;20052;-69
2022/03/24 09:07:15;;;;;;;29.15;16.50;;;17.60;58.30;;;;;;5074461;28;20077;-67
2022/03/24 09:09:45;;;;;;;25.60;15.93;;;17.70;57.60;;;;;;5073767;28;20116;-68
2022/03/24 09:12:11;;;;;;;48.40;16.45;;;17.80;58.80;;;;;;5074921;28;20036;-67
2022/03/24 09:14:38;;;;;;;41.10;15.70;;;18.10;56.10;;;;;;5083186;28;20028;-68
2022/03/24 09:17:05;;;;;;;30.02;15.82;;;18.20;56.20;;;;;;5094289;28;20072;-67
2022/03/24 09:19:32;;;;;;;32.80;16.48;;;18.30;54.80;;;;;;5076760;28;20036;-67
2022/03/24 09:21:59;;;;;;;32.22;15.02;;;;;;;;;;5076844;28;20055;-67
2022/03/24 09:24:26;;;;;;;29.40;15.40;;;18.30;54.30;;;;;;5094931;28;20012;-68
2022/03/24 09:26:52;;;;;;;32.75;16.17;;;18.60;53.50;;;;;;5094856;28;20073;-69
2022/03/24 09:29:18;;;;;;;28.77;15.63;;;;;;;;;;5094625;28;20036;-69
2022/03/24 09:31:44;;;;;;;27.17;15.82;;;18.70;52.40;;;;;;5094944;28;20028;-69
2022/03/24 09:34:10;;;;;;;30.63;15.38;;;18.90;53.90;;;;;;5095102;28;20475;-68
2022/03/24 09:36:36;;;;;;;33.10;16.02;;;;;;;;;;5094991;28;20538;-67
2022/03/24 09:39:03;;;;;;;41.83;16.80;;;19.00;54.00;;;;;;5095291;28;20054;-66
2022/03/24 09:41:30;;;;;;;31.65;16.67;;;;;;;;;;5084656;28;20036;-70
2022/03/24 09:43:58;;;;;;;26.58;15.25;;;;;;;;;;5074412;28;20048;-69
2022/03/24 09:46:28;;;;;;;30.77;15.07;;;19.20;53.90;;;;;;5074239;28;20068;-68
2022/03/24 09:48:54;;;;;;;29.38;15.10;;;19.60;52.20;;;;;;5073364;28;20029;-67
2022/03/24 09:51:21;;;;;;;32.17;14.50;;;19.70;51.90;;;;;;5074524;28;20111;-69
2022/03/24 09:53:47;;;;;;;33.25;17.17;;;19.70;49.90;;;;;;5074120;28;20079;-71
2022/03/24 09:56:13;;;;;;;29.10;14.65;;;;;;;;;;5073106;28;20462;-70
2022/03/24 09:58:42;;;;;;;27.25;15.43;;;;;;;;;;5073234;28;20036;-69
2022/03/24 10:01:09;;;;;;;32.92;15.70;;;19.90;50.30;;;;;;5074408;28;20078;-69
2022/03/24 10:03:35;;;;;;;32.95;15.73;;;;;;;;;;5072790;28;20086;-68
2022/03/24 10:06:07;;;;;;;27.40;14.25;;;;;;;;;;5073664;28;20028;-71
2022/03/24 10:08:35;;;;;;;22.00;12.48;;;20.20;49.90;;;;;;5073971;28;20079;-74
2022/03/24 10:11:09;;;;;;;23.23;13.95;;;20.90;47.10;;;;;;5072646;28;20025;-68
2022/03/24 10:13:45;;;;;;;29.77;14.10;;;20.70;47.30;;;;;;5074096;28;20025;-68
2022/03/24 10:16:14;;;;;;;40.95;16.10;;;20.70;46.30;;;;;;5074011;28;20025;-72
2022/03/24 10:19:02;;;;;;;31.23;15.00;;;20.70;48.10;;;;;;5073942;28;20036;-69
2022/03/24 10:21:30;;;;;;;23.00;10.20;;;;;;;;;;5073648;28;20024;-70
2022/03/24 10:24:05;;;;;;;29.35;11.75;;;20.80;47.30;;;;;;5073892;28;20533;-71
2022/03/24 10:26:55;;;;;;;23.50;11.02;;;21.40;46.80;;;;;;5072522;28;20046;-71
2022/03/24 10:29:22;;;;;;;21.63;9.15;;;;;;;;;;5073862;28;20111;-72
2022/03/24 10:31:56;;;;;;;19.92;10.93;;;21.50;44.90;;;;;;5073621;28;20020;-71
2022/03/24 10:34:37;;;;;;;22.58;10.52;;;21.80;44.00;;;;;;5073739;28;20055;-69
2022/03/24 10:37:09;;;;;;;17.83;9.50;;;22.30;43.10;;;;;;5073581;28;20465;-72
2022/03/24 10:39:37;;;;;;;16.75;7.65;;;23.00;42.60;;;;;;5073500;28;20476;-71
2022/03/24 10:42:14;;;;;;;17.80;9.73;;;;;;;;;;5073553;28;20416;-72
2022/03/24 10:45:08;;;;;;;27.73;9.93;;;23.00;41.50;;;;;;5088895;28;20055;-72
2022/03/24 10:47:42;;;;;;;28.17;10.82;;;24.40;40.80;;;;;;5073256;28;20064;-69
2022/03/24 10:50:38;;;;;;;21.55;10.05;;;25.00;39.40;;;;;;5073447;28;20430;-70
2022/03/24 10:53:12;;;;;;;16.52;10.57;;;25.70;39.80;;;;;;5072102;28;20054;-71
2022/03/24 10:55:44;;;;;;;19.23;8.57;;;25.50;39.40;;;;;;5055093;28;20503;-70
2022/03/24 10:58:19;;;;;;;18.73;8.68;;;25.50;37.60;;;;;;5054833;28;20025;-68
2022/03/24 11:00:47;;;;;;;19.60;8.88;;;25.50;38.60;;;;;;5073218;28;20024;-70
2022/03/24 11:03:18;;;;;;;18.33;9.43;;;25.60;37.30;;;;;;5073082;28;20032;-70
2022/03/24 11:05:44;;;;;;;20.97;8.07;;;26.30;38.00;;;;;;5055151;28;20036;-72
2022/03/24 11:08:14;;;;;;;31.73;9.57;;;27.70;37.00;;;;;;5072704;28;20067;-72
2022/03/24 11:10:48;;;;;;;21.92;9.95;;;28.30;35.80;;;;;;5073264;28;20060;-70
2022/03/24 11:13:24;;;;;;;19.45;8.38;;;28.00;35.40;;;;;;5071914;28;20033;-70
2022/03/24 11:15:51;;;;;;;19.20;8.55;;;27.40;34.60;;;;;;5055162;28;20173;-72
2022/03/24 11:18:17;;;;;;;20.38;8.68;;;28.40;35.30;;;;;;5073066;28;20040;-70
2022/03/24 11:20:45;;;;;;;20.25;8.68;;;27.70;34.00;;;;;;5072976;28;20029;-70
2022/03/24 11:23:20;;;;;;;23.58;9.65;;;27.50;34.30;;;;;;5072866;28;20024;-73
2022/03/24 11:25:45;;;;;;;31.42;9.32;;;27.70;34.30;;;;;;5072932;28;20473;-75
2022/03/24 11:28:14;;;;;;;26.08;8.77;;;28.90;34.70;;;;;;5072561;28;20038;-69
2022/03/24 11:30:41;;;;;;;32.20;8.93;;;30.00;33.00;;;;;;5072901;28;20028;-70
2022/03/24 11:33:08;;;;;;;16.13;8.93;;;29.50;33.40;;;;;;5054448;28;20020;-68
2022/03/24 11:35:35;;;;;;;14.30;8.35;;;29.80;33.40;;;;;;5071471;28;20536;-69
2022/03/24 11:38:03;;;;;;;15.93;7.13;;;29.70;32.50;;;;;;5069757;28;20472;-70
2022/03/24 11:40:31;;;;;;;17.95;6.55;;;28.90;31.20;;;;;;5072476;28;20082;-71
2022/03/24 11:43:10;;;;;;;12.63;5.70;;;28.40;31.80;;;;;;5071665;28;20086;-68
2022/03/24 11:45:44;;;;;;;15.75;7.20;;;28.70;30.20;;;;;;5072665;28;20496;-69
2022/03/24 11:48:12;;;;;;;79.20;11.48;;;28.40;31.80;;;;;;5072704;28;20513;-68
2022/03/24 11:50:54;;;;;;;15.32;7.13;;;29.50;31.70;;;;;;5072754;28;20086;-69
2022/03/24 11:53:29;;;;;;;16.33;8.27;;;29.40;30.90;;;;;;5072658;28;20032;-70
2022/03/24 11:56:04;;;;;;;23.95;8.15;;;29.50;31.60;;;;;;5072643;28;20035;-69
2022/03/24 11:58:46;;;;;;;15.80;7.20;;;29.50;31.30;;;;;;5054477;28;20060;-68
2022/03/24 12:01:18;;;;;;;17.35;6.57;;;30.80;31.20;;;;;;5072674;28;20037;-69
2022/03/24 12:04:00;;;;;;;9.50;5.35;;;30.40;29.50;;;;;;5053995;28;20555;-69
2022/03/24 12:06:42;;;;;;;12.18;6.35;;;29.90;29.70;;;;;;5054479;28;20542;-68
2022/03/24 12:09:13;;;;;;;11.93;7.05;;;29.90;30.00;;;;;;5072357;28;20021;-68
2022/03/24 12:11:43;;;;;;;19.98;6.32;;;;;;;;;;5072373;28;20178;-67
2022/03/24 12:14:42;;;;;;;13.90;7.78;;;31.20;61.20;;;;;;5072320;28;20028;-66
2022/03/24 12:17:21;;;;;;;15.48;7.60;;;32.90;30.10;;;;;;5072477;28;20107;-67
2022/03/24 12:20:20;;;;;;;11.88;7.10;;;31.80;29.70;;;;;;5074801;28;20027;-68
2022/03/24 12:22:46;;;;;;;16.08;8.05;;;31.20;30.20;;;;;;5013815;28;20412;-67
2022/03/24 12:25:12;;;;;;;19.63;7.90;;;31.00;29.80;;;;;;5013485;28;20045;-69
2022/03/24 12:27:58;;;;;;;15.95;7.53;;;30.80;29.90;;;;;;5013880;28;20042;-68
2022/03/24 12:30:24;;;;;;;19.30;7.35;;;31.00;30.20;;;;;;5013975;28;20034;-68
2022/03/24 12:33:06;;;;;;;18.23;7.55;;;33.00;30.40;;;;;;5013875;28;20116;-69
2022/03/24 12:35:43;;;;;;;21.77;7.22;;;32.70;29.50;;;;;;5013854;28;20040;-68
2022/03/24 12:38:33;;;;;;;13.55;6.63;;;31.80;28.70;;;;;;4997150;28;20044;-67
2022/03/24 12:41:05;;;;;;;14.77;6.90;;;31.70;29.40;;;;;;5013721;28;20551;-67
2022/03/24 12:44:00;;;;;;;19.15;6.50;;;31.30;29.20;;;;;;5013372;28;20081;-68
2022/03/24 12:46:33;;;;;;;15.07;6.45;;;32.00;29.70;;;;;;5013150;28;20046;-68
2022/03/24 12:49:15;;;;;;;10.93;6.57;;;32.00;29.30;;;;;;5013643;28;20551;-68
2022/03/24 12:52:04;;;;;;;12.18;6.30;;;32.30;29.50;;;;;;5013628;28;20425;-67
2022/03/24 12:54:44;;;;;;;13.43;6.00;;;33.10;37.10;;;;;;5013522;28;20038;-68
2022/03/24 12:57:22;;;;;;;18.58;6.68;;;33.60;28.70;;;;;;5013576;28;20066;-67
2022/03/24 12:59:49;;;;;;;12.50;5.88;;;34.80;28.80;;;;;;5048670;28;20042;-66
2022/03/24 13:02:15;;;;;;;11.57;6.18;;;34.80;28.50;;;;;;5075548;28;20042;-67
2022/03/24 13:04:41;;;;;;;17.73;7.40;;;33.80;27.80;;;;;;5075526;28;20078;-67
2022/03/24 13:07:07;;;;;;;9.32;7.07;;;34.00;28.90;;;;;;5075429;28;20415;-68
2022/03/24 13:09:33;;;;;;;11.50;6.80;;;33.70;29.00;;;;;;5075414;28;20032;-67
2022/03/24 13:12:02;;;;;;;17.55;6.70;;;34.60;28.40;;;;;;5075463;28;20086;-67
2022/03/24 13:14:30;;;;;;;14.85;7.20;;;33.80;28.40;;;;;;5075337;28;20028;-69
2022/03/24 13:17:12;;;;;;;20.48;7.05;;;33.40;28.80;;;;;;5075507;28;20374;-69
2022/03/24 13:19:40;;;;;;;11.55;6.97;;;34.20;28.70;;;;;;5075152;28;20027;-67
2022/03/24 13:22:22;;;;;;;15.13;7.32;;;34.10;29.20;;;;;;5056880;28;20104;-67
2022/03/24 13:25:21;;;;;;;14.93;7.63;;;33.40;29.20;;;;;;5074987;28;20029;-67
2022/03/24 13:27:54;;;;;;;10.77;7.43;;;34.50;28.80;;;;;;5063987;28;20404;-67
2022/03/24 13:30:25;;;;;;;11.50;6.90;;;35.00;28.60;;;;;;5074715;28;20028;-67
2022/03/24 13:32:53;;;;;;;10.18;6.53;;;35.30;37.80;;;;;;5075092;28;20082;-67
2022/03/24 13:35:22;;;;;;;15.55;6.97;;;36.10;28.10;;;;;;5073640;28;20044;-67
2022/03/24 13:37:53;;;;;;;11.55;6.75;;;;;;;;;;5074921;28;20078;-67
2022/03/24 13:40:40;;;;;;;11.40;6.72;;;33.20;27.70;;;;;;5074623;28;20487;-67
2022/03/24 13:43:06;;;;;;;10.88;6.60;;;32.10;28.40;;;;;;5074590;28;20112;-67
2022/03/24 13:45:34;;;;;;;15.52;6.65;;;32.20;28.90;;;;;;5074603;28;20468;-68
2022/03/24 13:48:12;;;;;;;14.73;8.07;;;32.30;28.00;;;;;;5074795;28;20030;-68